sensor_id;sensor_type;location;lat;lon;timestamp;pressure;altitude;pressure_sealevel;temperature;humidity
61436;BME280;47304;47.456;19.160;2023-06-04T00:02:09;100540.77;;;12.89;55.91
61436;BME280;47304;47.456;19.160;2023-06-04T00:04:36;100532.34;;;12.90;55.96
61436;BME280;47304;47.456;19.160;2023-06-04T00:07:02;100532.52;;;12.90;55.69
61436;BME280;47304;47.456;19.160;2023-06-04T00:09:29;100528.30;;;12.88;55.87
61436;BME280;47304;47.456;19.160;2023-06-04T00:11:55;100532.70;;;12.89;55.72
61436;BME280;47304;47.456;19.160;2023-06-04T00:14:23;100529.00;;;12.89;55.56
61436;BME280;47304;47.456;19.160;2023-06-04T00:16:49;100536.57;;;12.89;55.59
61436;BME280;47304;47.456;19.160;2023-06-04T00:19:16;100534.98;;;12.89;55.76
61436;BME280;47304;47.456;19.160;2023-06-04T00:21:43;100531.81;;;12.88;55.68
61436;BME280;47304;47.456;19.160;2023-06-04T00:24:09;100540.25;;;12.89;56.12
61436;BME280;47304;47.456;19.160;2023-06-04T00:26:39;100539.55;;;12.89;56.18
61436;BME280;47304;47.456;19.160;2023-06-04T00:29:05;100539.02;;;12.89;56.45
61436;BME280;47304;47.456;19.160;2023-06-04T00:31:32;100538.32;;;12.88;56.20
61436;BME280;47304;47.456;19.160;2023-06-04T00:33:58;100538.68;;;12.88;56.73
61436;BME280;47304;47.456;19.160;2023-06-04T00:36:25;100537.27;;;12.87;56.47
61436;BME280;47304;47.456;19.160;2023-06-04T00:38:52;100527.08;;;12.87;56.28
61436;BME280;47304;47.456;19.160;2023-06-04T00:41:18;100520.05;;;12.87;56.47
61436;BME280;47304;47.456;19.160;2023-06-04T00:43:45;100525.14;;;12.87;56.62
61436;BME280;47304;47.456;19.160;2023-06-04T00:46:12;100523.56;;;12.86;56.72
61436;BME280;47304;47.456;19.160;2023-06-04T00:48:39;100531.83;;;12.86;56.79
61436;BME280;47304;47.456;19.160;2023-06-04T00:51:05;100531.83;;;12.85;56.95
61436;BME280;47304;47.456;19.160;2023-06-04T00:53:32;100537.48;;;12.85;57.16
61436;BME280;47304;47.456;19.160;2023-06-04T00:55:59;100538.36;;;12.84;57.30
61436;BME280;47304;47.456;19.160;2023-06-04T00:58:25;100539.07;;;12.82;57.11
61436;BME280;47304;47.456;19.160;2023-06-04T01:00:54;100537.17;;;12.78;57.12
61436;BME280;47304;47.456;19.160;2023-06-04T01:03:25;100531.91;;;12.76;57.38
61436;BME280;47304;47.456;19.160;2023-06-04T01:06:00;100526.82;;;12.75;57.49
61436;BME280;47304;47.456;19.160;2023-06-04T01:08:28;100525.77;;;12.73;57.48
61436;BME280;47304;47.456;19.160;2023-06-04T01:10:56;100525.27;;;12.71;57.22
61436;BME280;47304;47.456;19.160;2023-06-04T01:13:24;100525.46;;;12.70;57.32
61436;BME280;47304;47.456;19.160;2023-06-04T01:15:51;100532.49;;;12.68;57.80
61436;BME280;47304;47.456;19.160;2023-06-04T01:18:26;100530.91;;;12.66;57.89
61436;BME280;47304;47.456;19.160;2023-06-04T01:20:59;100526.02;;;12.61;58.00
61436;BME280;47304;47.456;19.160;2023-06-04T01:26:04;100525.73;;;12.53;58.48
61436;BME280;47304;47.456;19.160;2023-06-04T01:28:33;100528.91;;;12.49;58.63
61436;BME280;47304;47.456;19.160;2023-06-04T01:31:01;100527.52;;;12.47;59.05
61436;BME280;47304;47.456;19.160;2023-06-04T01:33:29;100522.96;;;12.45;59.66
61436;BME280;47304;47.456;19.160;2023-06-04T01:35:55;100520.34;;;12.41;59.63
61436;BME280;47304;47.456;19.160;2023-06-04T01:38:22;100526.16;;;12.38;59.96
61436;BME280;47304;47.456;19.160;2023-06-04T01:40:49;100525.11;;;12.36;59.93
61436;BME280;47304;47.456;19.160;2023-06-04T01:43:15;100532.67;;;12.35;59.99
61436;BME280;47304;47.456;19.160;2023-06-04T01:45:42;100534.98;;;12.33;60.48
61436;BME280;47304;47.456;19.160;2023-06-04T01:48:08;100537.45;;;12.30;60.58
61436;BME280;47304;47.456;19.160;2023-06-04T01:50:35;100542.37;;;12.28;60.92
61436;BME280;47304;47.456;19.160;2023-06-04T01:53:02;100544.83;;;12.27;61.07
61436;BME280;47304;47.456;19.160;2023-06-04T01:55:28;100541.52;;;12.25;60.77
61436;BME280;47304;47.456;19.160;2023-06-04T01:57:55;100543.27;;;12.23;60.87
61436;BME280;47304;47.456;19.160;2023-06-04T02:00:21;100538.72;;;12.22;60.86
61436;BME280;47304;47.456;19.160;2023-06-04T02:02:48;100536.27;;;12.20;60.91
61436;BME280;47304;47.456;19.160;2023-06-04T02:05:15;100537.67;;;12.18;60.93
61436;BME280;47304;47.456;19.160;2023-06-04T02:07:44;100538.39;;;12.16;60.96
61436;BME280;47304;47.456;19.160;2023-06-04T02:10:12;100535.05;;;12.15;60.97
61436;BME280;47304;47.456;19.160;2023-06-04T02:12:52;100535.94;;;12.14;61.05
61436;BME280;47304;47.456;19.160;2023-06-04T02:15:19;100537.36;;;12.11;61.24
61436;BME280;47304;47.456;19.160;2023-06-04T02:17:45;100536.30;;;12.09;61.24
61436;BME280;47304;47.456;19.160;2023-06-04T02:20:12;100535.27;;;12.07;61.35
61436;BME280;47304;47.456;19.160;2023-06-04T02:22:39;100534.39;;;12.06;61.41
61436;BME280;47304;47.456;19.160;2023-06-04T02:25:05;100536.33;;;12.06;61.55
61436;BME280;47304;47.456;19.160;2023-06-04T02:27:32;100541.25;;;12.05;61.75
61436;BME280;47304;47.456;19.160;2023-06-04T02:29:58;100544.23;;;12.04;61.82
61436;BME280;47304;47.456;19.160;2023-06-04T02:32:25;100545.81;;;12.01;61.83
61436;BME280;47304;47.456;19.160;2023-06-04T02:34:52;100547.05;;;11.99;61.99
61436;BME280;47304;47.456;19.160;2023-06-04T02:37:18;100544.23;;;11.96;61.89
61436;BME280;47304;47.456;19.160;2023-06-04T02:39:45;100546.87;;;11.92;62.01
61436;BME280;47304;47.456;19.160;2023-06-04T02:42:11;100549.34;;;11.89;62.38
61436;BME280;47304;47.456;19.160;2023-06-04T02:44:38;100546.70;;;11.86;62.48
61436;BME280;47304;47.456;19.160;2023-06-04T02:47:05;100544.80;;;11.84;62.72
61436;BME280;47304;47.456;19.160;2023-06-04T02:49:31;100544.60;;;11.84;62.89
61436;BME280;47304;47.456;19.160;2023-06-04T02:51:58;100544.44;;;11.85;62.87
61436;BME280;47304;47.456;19.160;2023-06-04T02:54:25;100542.49;;;11.85;62.94
61436;BME280;47304;47.456;19.160;2023-06-04T02:56:51;100542.85;;;11.87;62.85
61436;BME280;47304;47.456;19.160;2023-06-04T02:59:18;100539.86;;;11.89;62.80
61436;BME280;47304;47.456;19.160;2023-06-04T03:01:44;100538.27;;;11.90;63.01
61436;BME280;47304;47.456;19.160;2023-06-04T03:04:11;100540.56;;;11.90;63.20
61436;BME280;47304;47.456;19.160;2023-06-04T03:06:38;100541.96;;;11.89;63.26
61436;BME280;47304;47.456;19.160;2023-06-04T03:09:04;100546.17;;;11.89;63.14
61436;BME280;47304;47.456;19.160;2023-06-04T03:11:31;100542.50;;;11.89;63.31
61436;BME280;47304;47.456;19.160;2023-06-04T03:13:58;100543.38;;;11.90;63.41
61436;BME280;47304;47.456;19.160;2023-06-04T03:16:24;100540.02;;;11.92;63.74
61436;BME280;47304;47.456;19.160;2023-06-04T03:18:51;100539.14;;;11.94;63.30
61436;BME280;47304;47.456;19.160;2023-06-04T03:21:17;100538.27;;;11.95;63.30
61436;BME280;47304;47.456;19.160;2023-06-04T03:23:44;100539.32;;;11.94;63.29
61436;BME280;47304;47.456;19.160;2023-06-04T03:26:11;100543.17;;;11.95;63.33
61436;BME280;47304;47.456;19.160;2023-06-04T03:28:37;100546.33;;;11.95;63.01
61436;BME280;47304;47.456;19.160;2023-06-04T03:31:04;100554.77;;;11.97;62.95
61436;BME280;47304;47.456;19.160;2023-06-04T03:33:31;100560.58;;;11.99;63.37
61436;BME280;47304;47.456;19.160;2023-06-04T03:35:57;100560.40;;;12.03;63.10
61436;BME280;47304;47.456;19.160;2023-06-04T03:38:25;100565.46;;;12.07;63.03
61436;BME280;47304;47.456;19.160;2023-06-04T03:40:52;100566.33;;;12.11;63.30
61436;BME280;47304;47.456;19.160;2023-06-04T03:43:19;100567.18;;;12.15;63.24
61436;BME280;47304;47.456;19.160;2023-06-04T03:45:46;100562.98;;;12.18;63.61
61436;BME280;47304;47.456;19.160;2023-06-04T03:48:12;100565.23;;;12.23;63.69
61436;BME280;47304;47.456;19.160;2023-06-04T03:50:39;100564.16;;;12.27;63.85
61436;BME280;47304;47.456;19.160;2023-06-04T03:53:06;100560.63;;;12.34;63.94
61436;BME280;47304;47.456;19.160;2023-06-04T03:55:32;100560.05;;;12.41;63.74
61436;BME280;47304;47.456;19.160;2023-06-04T03:57:59;100562.83;;;12.49;63.54
61436;BME280;47304;47.456;19.160;2023-06-04T04:00:26;100570.17;;;12.55;63.15
61436;BME280;47304;47.456;19.160;2023-06-04T04:02:52;100576.80;;;12.65;63.30
61436;BME280;47304;47.456;19.160;2023-06-04T04:05:19;100581.67;;;12.73;62.37
61436;BME280;47304;47.456;19.160;2023-06-04T04:07:45;100580.73;;;12.83;61.32
61436;BME280;47304;47.456;19.160;2023-06-04T04:10:13;100579.28;;;12.90;60.68
61436;BME280;47304;47.456;19.160;2023-06-04T04:12:39;100573.06;;;12.99;60.42
61436;BME280;47304;47.456;19.160;2023-06-04T04:15:06;100575.81;;;13.08;60.07
61436;BME280;47304;47.456;19.160;2023-06-04T04:17:33;100579.60;;;13.16;60.04
61436;BME280;47304;47.456;19.160;2023-06-04T04:19:59;100574.83;;;13.23;60.13
61436;BME280;47304;47.456;19.160;2023-06-04T04:22:26;100577.94;;;13.29;60.18
61436;BME280;47304;47.456;19.160;2023-06-04T04:24:53;100582.83;;;13.34;60.59
61436;BME280;47304;47.456;19.160;2023-06-04T04:27:19;100585.26;;;13.38;60.57
61436;BME280;47304;47.456;19.160;2023-06-04T04:29:46;100582.96;;;13.41;61.39
61436;BME280;47304;47.456;19.160;2023-06-04T04:32:12;100586.11;;;13.43;61.76
61436;BME280;47304;47.456;19.160;2023-06-04T04:34:50;100583.96;;;13.47;61.59
61436;BME280;47304;47.456;19.160;2023-06-04T04:37:17;100588.00;;;13.49;59.85
61436;BME280;47304;47.456;19.160;2023-06-04T04:39:44;100587.96;;;13.53;60.82
61436;BME280;47304;47.456;19.160;2023-06-04T04:42:10;100588.61;;;13.60;61.12
61436;BME280;47304;47.456;19.160;2023-06-04T04:44:37;100592.23;;;13.67;60.95
61436;BME280;47304;47.456;19.160;2023-06-04T04:47:03;100594.25;;;13.77;60.55
61436;BME280;47304;47.456;19.160;2023-06-04T04:49:30;100590.46;;;13.85;59.37
61436;BME280;47304;47.456;19.160;2023-06-04T04:51:56;100591.42;;;13.94;57.29
61436;BME280;47304;47.456;19.160;2023-06-04T04:54:23;100592.90;;;14.05;55.84
61436;BME280;47304;47.456;19.160;2023-06-04T04:56:49;100595.21;;;14.19;56.26
61436;BME280;47304;47.456;19.160;2023-06-04T04:59:30;100594.85;;;14.34;55.55
61436;BME280;47304;47.456;19.160;2023-06-04T05:01:56;100593.13;;;14.45;54.75
61436;BME280;47304;47.456;19.160;2023-06-04T05:04:23;100592.62;;;14.57;54.28
61436;BME280;47304;47.456;19.160;2023-06-04T05:06:50;100594.45;;;14.67;53.66
61436;BME280;47304;47.456;19.160;2023-06-04T05:09:16;100597.27;;;14.80;55.56
61436;BME280;47304;47.456;19.160;2023-06-04T05:11:43;100593.77;;;14.91;54.97
61436;BME280;47304;47.456;19.160;2023-06-04T05:14:09;100590.44;;;15.00;53.51
61436;BME280;47304;47.456;19.160;2023-06-04T05:16:36;100592.79;;;15.09;52.89
61436;BME280;47304;47.456;19.160;2023-06-04T05:19:04;100594.24;;;15.17;52.94
61436;BME280;47304;47.456;19.160;2023-06-04T05:21:30;100594.33;;;15.23;51.98
61436;BME280;47304;47.456;19.160;2023-06-04T05:23:57;100601.11;;;15.29;52.41
61436;BME280;47304;47.456;19.160;2023-06-04T05:26:23;100601.36;;;15.35;52.48
61436;BME280;47304;47.456;19.160;2023-06-04T05:28:50;100604.64;;;15.40;52.81
61436;BME280;47304;47.456;19.160;2023-06-04T05:31:16;100605.95;;;15.47;53.21
61436;BME280;47304;47.456;19.160;2023-06-04T05:33:43;100604.46;;;15.51;52.95
61436;BME280;47304;47.456;19.160;2023-06-04T05:36:09;100605.46;;;15.54;52.63
61436;BME280;47304;47.456;19.160;2023-06-04T05:38:36;100606.81;;;15.58;52.31
61436;BME280;47304;47.456;19.160;2023-06-04T05:41:03;100610.24;;;15.63;51.71
61436;BME280;47304;47.456;19.160;2023-06-04T05:43:29;100611.58;;;15.68;51.38
61436;BME280;47304;47.456;19.160;2023-06-04T05:45:56;100615.03;;;15.72;50.96
61436;BME280;47304;47.456;19.160;2023-06-04T05:48:23;100615.60;;;15.80;51.14
61436;BME280;47304;47.456;19.160;2023-06-04T05:50:49;100613.93;;;15.87;50.22
61436;BME280;47304;47.456;19.160;2023-06-04T05:53:16;100620.02;;;15.93;49.84
61436;BME280;47304;47.456;19.160;2023-06-04T05:55:42;100619.55;;;15.98;49.80
61436;BME280;47304;47.456;19.160;2023-06-04T05:58:09;100616.96;;;16.04;49.70
61436;BME280;47304;47.456;19.160;2023-06-04T06:00:36;100618.73;;;16.13;49.80
61436;BME280;47304;47.456;19.160;2023-06-04T06:03:02;100617.70;;;16.21;49.68
61436;BME280;47304;47.456;19.160;2023-06-04T06:05:29;100617.35;;;16.30;50.56
61436;BME280;47304;47.456;19.160;2023-06-04T06:07:55;100613.81;;;16.38;50.16
61436;BME280;47304;47.456;19.160;2023-06-04T06:10:22;100611.02;;;16.45;49.32
61436;BME280;47304;47.456;19.160;2023-06-04T06:12:49;100612.47;;;16.52;49.19
61436;BME280;47304;47.456;19.160;2023-06-04T06:15:15;100614.44;;;16.60;49.59
61436;BME280;47304;47.456;19.160;2023-06-04T06:17:42;100616.80;;;16.64;49.12
61436;BME280;47304;47.456;19.160;2023-06-04T06:20:09;100615.23;;;16.72;50.44
61436;BME280;47304;47.456;19.160;2023-06-04T06:22:36;100609.70;;;16.81;50.03
61436;BME280;47304;47.456;19.160;2023-06-04T06:25:04;100611.34;;;16.97;49.53
61436;BME280;47304;47.456;19.160;2023-06-04T06:27:31;100608.31;;;17.12;49.82
61436;BME280;47304;47.456;19.160;2023-06-04T06:29:57;100604.74;;;17.29;49.29
61436;BME280;47304;47.456;19.160;2023-06-04T06:32:24;100605.20;;;17.46;48.90
61436;BME280;47304;47.456;19.160;2023-06-04T06:34:51;100605.20;;;17.60;48.67
61436;BME280;47304;47.456;19.160;2023-06-04T06:37:18;100611.65;;;17.71;48.33
61436;BME280;47304;47.456;19.160;2023-06-04T06:39:45;100617.42;;;17.81;47.83
61436;BME280;47304;47.456;19.160;2023-06-04T06:42:11;100619.86;;;17.89;46.59
61436;BME280;47304;47.456;19.160;2023-06-04T06:44:38;100622.02;;;17.95;46.53
61436;BME280;47304;47.456;19.160;2023-06-04T06:47:05;100623.21;;;18.04;46.92
61436;BME280;47304;47.456;19.160;2023-06-04T06:49:31;100623.63;;;18.14;46.53
61436;BME280;47304;47.456;19.160;2023-06-04T06:51:58;100620.05;;;18.22;45.71
61436;BME280;47304;47.456;19.160;2023-06-04T06:54:25;100627.10;;;18.30;46.06
61436;BME280;47304;47.456;19.160;2023-06-04T06:56:52;100628.84;;;18.37;45.71
61436;BME280;47304;47.456;19.160;2023-06-04T06:59:19;100633.48;;;18.43;45.30
61436;BME280;47304;47.456;19.160;2023-06-04T07:01:45;100633.46;;;18.49;45.90
61436;BME280;47304;47.456;19.160;2023-06-04T07:04:12;100636.98;;;18.56;46.14
61436;BME280;47304;47.456;19.160;2023-06-04T07:06:38;100637.00;;;18.62;45.07
61436;BME280;47304;47.456;19.160;2023-06-04T07:09:05;100635.45;;;18.66;44.83
61436;BME280;47304;47.456;19.160;2023-06-04T07:11:31;100631.80;;;18.70;44.34
61436;BME280;47304;47.456;19.160;2023-06-04T07:13:58;100637.29;;;18.76;44.18
61436;BME280;47304;47.456;19.160;2023-06-04T07:16:24;100636.42;;;18.81;42.90
61436;BME280;47304;47.456;19.160;2023-06-04T07:18:51;100638.58;;;18.86;41.89
61436;BME280;47304;47.456;19.160;2023-06-04T07:21:18;100640.91;;;18.92;41.59
61436;BME280;47304;47.456;19.160;2023-06-04T07:23:44;100640.36;;;18.99;42.16
61436;BME280;47304;47.456;19.160;2023-06-04T07:26:11;100639.92;;;19.07;42.42
61436;BME280;47304;47.456;19.160;2023-06-04T07:28:37;100639.59;;;19.18;43.04
61436;BME280;47304;47.456;19.160;2023-06-04T07:31:04;100645.42;;;19.29;42.73
61436;BME280;47304;47.456;19.160;2023-06-04T07:33:31;100644.13;;;19.36;41.57
61436;BME280;47304;47.456;19.160;2023-06-04T07:35:58;100643.94;;;19.48;40.63
61436;BME280;47304;47.456;19.160;2023-06-04T07:38:25;100640.23;;;19.58;39.44
61436;BME280;47304;47.456;19.160;2023-06-04T07:40:52;100640.93;;;19.63;38.50
61436;BME280;47304;47.456;19.160;2023-06-04T07:43:18;100636.36;;;19.67;38.42
61436;BME280;47304;47.456;19.160;2023-06-04T07:45:45;100635.55;;;19.81;38.72
61436;BME280;47304;47.456;19.160;2023-06-04T07:48:11;100632.92;;;19.96;38.69
61436;BME280;47304;47.456;19.160;2023-06-04T07:50:38;100633.73;;;20.08;39.16
61436;BME280;47304;47.456;19.160;2023-06-04T07:53:06;100639.00;;;20.20;38.96
61436;BME280;47304;47.456;19.160;2023-06-04T07:55:33;100643.52;;;20.28;39.13
61436;BME280;47304;47.456;19.160;2023-06-04T07:58:00;100643.80;;;20.35;38.56
61436;BME280;47304;47.456;19.160;2023-06-04T08:00:27;100643.67;;;20.38;38.18
61436;BME280;47304;47.456;19.160;2023-06-04T08:02:54;100643.42;;;20.40;38.21
61436;BME280;47304;47.456;19.160;2023-06-04T08:05:21;100643.42;;;20.40;38.17
61436;BME280;47304;47.456;19.160;2023-06-04T08:07:47;100645.08;;;20.49;38.23
61436;BME280;47304;47.456;19.160;2023-06-04T08:10:14;100650.48;;;20.61;37.79
61436;BME280;47304;47.456;19.160;2023-06-04T08:12:40;100648.42;;;20.68;36.07
61436;BME280;47304;47.456;19.160;2023-06-04T08:15:07;100651.08;;;20.74;36.43
61436;BME280;47304;47.456;19.160;2023-06-04T08:17:34;100648.97;;;20.83;36.67
61436;BME280;47304;47.456;19.160;2023-06-04T08:20:01;100650.55;;;20.93;36.61
61436;BME280;47304;47.456;19.160;2023-06-04T08:22:27;100654.05;;;21.04;35.80
61436;BME280;47304;47.456;19.160;2023-06-04T08:24:54;100653.26;;;21.15;36.12
61436;BME280;47304;47.456;19.160;2023-06-04T08:27:20;100651.98;;;21.24;37.13
61436;BME280;47304;47.456;19.160;2023-06-04T08:29:47;100649.75;;;21.36;36.78
61436;BME280;47304;47.456;19.160;2023-06-04T08:32:13;100647.70;;;21.46;35.46
61436;BME280;47304;47.456;19.160;2023-06-04T08:34:40;100650.73;;;21.55;35.15
61436;BME280;47304;47.456;19.160;2023-06-04T08:37:06;100647.03;;;21.72;34.88
61436;BME280;47304;47.456;19.160;2023-06-04T08:39:33;100647.27;;;21.83;34.21
61436;BME280;47304;47.456;19.160;2023-06-04T08:42:01;100645.22;;;21.93;34.11
61436;BME280;47304;47.456;19.160;2023-06-04T08:44:30;100641.52;;;22.05;33.42
61436;BME280;47304;47.456;19.160;2023-06-04T08:47:05;100643.69;;;22.16;33.46
61436;BME280;47304;47.456;19.160;2023-06-04T08:49:34;100642.55;;;22.25;33.57
61436;BME280;47304;47.456;19.160;2023-06-04T08:52:01;100642.67;;;22.34;33.53
61436;BME280;47304;47.456;19.160;2023-06-04T08:54:29;100638.38;;;22.35;33.59
61436;BME280;47304;47.456;19.160;2023-06-04T08:56:56;100639.02;;;22.42;34.83
61436;BME280;47304;47.456;19.160;2023-06-04T08:59:23;100638.43;;;22.51;33.83
61436;BME280;47304;47.456;19.160;2023-06-04T09:01:59;100636.58;;;22.52;32.94
61436;BME280;47304;47.456;19.160;2023-06-04T09:04:26;100635.06;;;22.54;34.13
61436;BME280;47304;47.456;19.160;2023-06-04T09:06:53;100633.81;;;22.62;34.23
61436;BME280;47304;47.456;19.160;2023-06-04T09:09:21;100638.80;;;22.66;33.55
61436;BME280;47304;47.456;19.160;2023-06-04T09:11:54;100641.89;;;22.57;32.62
61436;BME280;47304;47.456;19.160;2023-06-04T09:14:21;100638.34;;;22.40;32.45
61436;BME280;47304;47.456;19.160;2023-06-04T09:16:52;100634.01;;;22.29;32.90
61436;BME280;47304;47.456;19.160;2023-06-04T09:19:20;100635.60;;;22.17;32.96
61436;BME280;47304;47.456;19.160;2023-06-04T09:21:53;100638.80;;;22.06;34.79
61436;BME280;47304;47.456;19.160;2023-06-04T09:24:21;100638.77;;;21.98;34.74
61436;BME280;47304;47.456;19.160;2023-06-04T09:26:48;100642.25;;;21.87;34.42
61436;BME280;47304;47.456;19.160;2023-06-04T09:29:15;100641.89;;;21.75;34.41
61436;BME280;47304;47.456;19.160;2023-06-04T09:31:46;100641.35;;;21.67;34.64
61436;BME280;47304;47.456;19.160;2023-06-04T09:34:14;100641.63;;;21.60;34.70
61436;BME280;47304;47.456;19.160;2023-06-04T09:36:40;100642.41;;;21.54;34.41
61436;BME280;47304;47.456;19.160;2023-06-04T09:39:16;100645.73;;;21.46;34.46
61436;BME280;47304;47.456;19.160;2023-06-04T09:41:44;100646.64;;;21.42;34.58
61436;BME280;47304;47.456;19.160;2023-06-04T09:44:10;100644.11;;;21.39;34.81
61436;BME280;47304;47.456;19.160;2023-06-04T09:46:37;100652.11;;;21.39;35.28
61436;BME280;47304;47.456;19.160;2023-06-04T09:49:05;100651.09;;;21.38;35.43
61436;BME280;47304;47.456;19.160;2023-06-04T09:51:32;100651.28;;;21.37;35.38
61436;BME280;47304;47.456;19.160;2023-06-04T09:54:01;100652.77;;;21.36;35.80
61436;BME280;47304;47.456;19.160;2023-06-04T09:56:29;100655.40;;;21.32;35.83
61436;BME280;47304;47.456;19.160;2023-06-04T09:59:00;100653.50;;;21.31;36.16
61436;BME280;47304;47.456;19.160;2023-06-04T10:01:28;100653.95;;;21.29;36.04
61436;BME280;47304;47.456;19.160;2023-06-04T10:03:58;100651.63;;;21.25;35.94
61436;BME280;47304;47.456;19.160;2023-06-04T10:06:33;100654.45;;;21.16;36.01
61436;BME280;47304;47.456;19.160;2023-06-04T10:09:07;100656.11;;;21.10;36.18
61436;BME280;47304;47.456;19.160;2023-06-04T10:11:35;100660.08;;;21.04;36.56
61436;BME280;47304;47.456;19.160;2023-06-04T10:16:57;100661.91;;;20.98;37.03
61436;BME280;47304;47.456;19.160;2023-06-04T10:19:25;100665.70;;;20.93;36.64
61436;BME280;47304;47.456;19.160;2023-06-04T10:21:52;100660.30;;;20.85;37.00
61436;BME280;47304;47.456;19.160;2023-06-04T10:24:19;100658.54;;;20.80;37.36
61436;BME280;47304;47.456;19.160;2023-06-04T10:26:47;100657.30;;;20.74;37.36
61436;BME280;47304;47.456;19.160;2023-06-04T10:29:14;100658.95;;;20.68;37.45
61436;BME280;47304;47.456;19.160;2023-06-04T10:31:41;100659.77;;;20.65;37.74
61436;BME280;47304;47.456;19.160;2023-06-04T10:34:07;100658.48;;;20.62;37.58
61436;BME280;47304;47.456;19.160;2023-06-04T10:36:45;100657.38;;;20.58;37.74
61436;BME280;47304;47.456;19.160;2023-06-04T10:39:12;100653.74;;;20.55;37.61
61436;BME280;47304;47.456;19.160;2023-06-04T10:41:39;100652.55;;;20.53;37.87
61436;BME280;47304;47.456;19.160;2023-06-04T10:44:06;100650.56;;;20.54;37.93
61436;BME280;47304;47.456;19.160;2023-06-04T10:46:40;100653.84;;;20.57;38.06
61436;BME280;47304;47.456;19.160;2023-06-04T10:49:09;100654.39;;;20.61;37.99
61436;BME280;47304;47.456;19.160;2023-06-04T10:51:36;100654.26;;;20.65;37.56
61436;BME280;47304;47.456;19.160;2023-06-04T10:54:03;100650.16;;;20.70;38.47
61436;BME280;47304;47.456;19.160;2023-06-04T10:56:31;100650.33;;;20.80;38.80
61436;BME280;47304;47.456;19.160;2023-06-04T10:59:00;100651.90;;;20.90;38.46
61436;BME280;47304;47.456;19.160;2023-06-04T11:01:28;100652.67;;;21.02;38.08
61436;BME280;47304;47.456;19.160;2023-06-04T11:03:55;100648.95;;;21.15;37.62
61436;BME280;47304;47.456;19.160;2023-06-04T11:06:22;100649.14;;;21.24;37.66
61436;BME280;47304;47.456;19.160;2023-06-04T11:08:49;100650.14;;;21.34;37.33
61436;BME280;47304;47.456;19.160;2023-06-04T11:11:16;100649.89;;;21.41;37.20
61436;BME280;47304;47.456;19.160;2023-06-04T11:13:43;100648.80;;;21.46;37.36
61436;BME280;47304;47.456;19.160;2023-06-04T11:16:20;100651.02;;;21.52;37.28
61436;BME280;47304;47.456;19.160;2023-06-04T11:18:54;100645.70;;;21.65;37.41
61436;BME280;47304;47.456;19.160;2023-06-04T11:21:21;100649.52;;;21.89;36.48
61436;BME280;47304;47.456;19.160;2023-06-04T11:23:55;100649.06;;;22.12;36.50
61436;BME280;47304;47.456;19.160;2023-06-04T11:26:21;100647.30;;;22.35;36.07
61436;BME280;47304;47.456;19.160;2023-06-04T11:28:49;100650.34;;;22.52;34.91
61436;BME280;47304;47.456;19.160;2023-06-04T11:31:15;100646.81;;;22.58;34.78
61436;BME280;47304;47.456;19.160;2023-06-04T11:33:45;100649.15;;;22.62;35.00
61436;BME280;47304;47.456;19.160;2023-06-04T11:36:29;100647.60;;;22.65;34.74
61436;BME280;47304;47.456;19.160;2023-06-04T11:39:03;100646.42;;;22.63;34.90
61436;BME280;47304;47.456;19.160;2023-06-04T11:41:30;100646.80;;;22.63;35.10
61436;BME280;47304;47.456;19.160;2023-06-04T11:44:01;100650.35;;;22.64;34.70
61436;BME280;47304;47.456;19.160;2023-06-04T11:46:28;100651.30;;;22.58;34.32
61436;BME280;47304;47.456;19.160;2023-06-04T11:48:55;100655.64;;;22.53;34.83
61436;BME280;47304;47.456;19.160;2023-06-04T11:51:22;100657.17;;;22.50;34.95
61436;BME280;47304;47.456;19.160;2023-06-04T11:53:48;100648.67;;;22.49;35.28
61436;BME280;47304;47.456;19.160;2023-06-04T11:56:16;100649.04;;;22.49;36.69
61436;BME280;47304;47.456;19.160;2023-06-04T11:58:44;100646.77;;;22.48;37.12
61436;BME280;47304;47.456;19.160;2023-06-04T12:01:11;100646.77;;;22.44;36.20
61436;BME280;47304;47.456;19.160;2023-06-04T12:03:42;100653.45;;;22.42;36.97
61436;BME280;47304;47.456;19.160;2023-06-04T12:08:53;100657.06;;;22.41;37.49
61436;BME280;47304;47.456;19.160;2023-06-04T12:11:31;100654.36;;;22.33;37.27
61436;BME280;47304;47.456;19.160;2023-06-04T12:14:04;100653.15;;;22.28;37.97
61436;BME280;47304;47.456;19.160;2023-06-04T12:16:32;100655.56;;;22.26;38.60
61436;BME280;47304;47.456;19.160;2023-06-04T12:21:32;100651.33;;;22.25;38.83
61436;BME280;47304;47.456;19.160;2023-06-04T12:24:09;100651.80;;;22.26;38.52
61436;BME280;47304;47.456;19.160;2023-06-04T12:26:37;100653.28;;;22.29;39.64
61436;BME280;47304;47.456;19.160;2023-06-04T12:29:13;100653.75;;;22.31;38.66
61436;BME280;47304;47.456;19.160;2023-06-04T12:31:42;100654.33;;;22.34;38.06
61436;BME280;47304;47.456;19.160;2023-06-04T12:34:13;100651.23;;;22.39;37.75
61436;BME280;47304;47.456;19.160;2023-06-04T12:36:40;100650.82;;;22.45;37.53
61436;BME280;47304;47.456;19.160;2023-06-04T12:39:07;100648.59;;;22.51;36.97
61436;BME280;47304;47.456;19.160;2023-06-04T12:41:33;100651.59;;;22.55;35.98
61436;BME280;47304;47.456;19.160;2023-06-04T12:44:01;100650.52;;;22.60;35.55
61436;BME280;47304;47.456;19.160;2023-06-04T12:46:28;100646.92;;;22.64;35.05
61436;BME280;47304;47.456;19.160;2023-06-04T12:48:54;100644.55;;;22.69;35.32
61436;BME280;47304;47.456;19.160;2023-06-04T12:51:21;100637.27;;;22.76;35.94
61436;BME280;47304;47.456;19.160;2023-06-04T12:53:48;100636.20;;;22.87;37.07